createdAt,value
2024-04-12T00:00:18.072Z,512.00
2024-04-12T00:01:18.086Z,510.00
2024-04-12T00:02:18.712Z,513.00
2024-04-12T00:03:18.509Z,515.00
2024-04-12T00:04:18.742Z,514.00
2024-04-12T00:05:18.132Z,516.00
2024-04-12T00:06:18.107Z,515.00
2024-04-12T00:07:19.585Z,514.00
2024-04-12T00:08:18.229Z,515.00
2024-04-12T00:09:18.817Z,514.00
2024-04-12T00:10:18.218Z,515.00
2024-04-12T00:11:18.530Z,516.00
2024-04-12T00:12:18.519Z,518.00
2024-04-12T00:13:18.365Z,519.00
2024-04-12T00:14:18.490Z,520.00
2024-04-12T00:15:19.417Z,520.00
2024-04-12T00:16:18.898Z,522.00
2024-04-12T00:17:18.703Z,520.00
2024-04-12T00:18:18.447Z,519.00
2024-04-12T00:19:18.483Z,517.00
2024-04-12T00:20:19.218Z,515.00
2024-04-12T00:21:18.527Z,513.00
2024-04-12T00:22:18.520Z,510.00
2024-04-12T00:23:19.225Z,508.00
2024-04-12T00:24:18.558Z,508.00
2024-04-12T00:25:18.648Z,508.00
2024-04-12T00:26:18.578Z,508.00
2024-04-12T00:27:18.610Z,509.00
2024-04-12T00:28:18.658Z,510.00
2024-04-12T00:29:18.651Z,509.00
2024-04-12T00:30:18.647Z,508.00
2024-04-12T00:31:18.686Z,506.00
2024-04-12T00:32:18.764Z,507.00
2024-04-12T00:33:18.799Z,508.00
2024-04-12T00:34:18.729Z,507.00
2024-04-12T00:35:18.792Z,508.00
2024-04-12T00:36:18.922Z,510.00
2024-04-12T00:37:19.186Z,510.00
2024-04-12T00:38:18.847Z,511.00
2024-04-12T00:39:18.963Z,513.00
2024-04-12T00:40:18.934Z,513.00
2024-04-12T00:41:18.875Z,512.00
2024-04-12T00:42:18.891Z,511.00
2024-04-12T00:43:18.906Z,510.00
2024-04-12T00:44:19.061Z,510.00
2024-04-12T00:45:19.112Z,512.00
2024-04-12T00:46:19.096Z,512.00
2024-04-12T00:47:19.111Z,514.00
2024-04-12T00:48:19.088Z,517.00
2024-04-12T00:49:19.121Z,516.00
2024-04-12T00:50:19.024Z,517.00
2024-04-12T00:51:19.134Z,515.00
2024-04-12T00:52:19.157Z,514.00
2024-04-12T00:53:19.110Z,515.00
2024-04-12T00:54:19.341Z,516.00
2024-04-12T00:55:19.234Z,518.00
2024-04-12T00:56:19.194Z,518.00
2024-04-12T00:57:19.294Z,518.00
2024-04-12T00:58:19.458Z,516.00
2024-04-12T00:59:19.230Z,513.00
2024-04-12T01:00:19.290Z,514.00
2024-04-12T01:01:19.456Z,513.00
2024-04-12T01:02:19.511Z,514.00
2024-04-12T01:03:19.458Z,519.00
2024-04-12T01:04:19.434Z,518.00
2024-04-12T01:05:19.851Z,520.00
2024-04-12T01:06:19.428Z,520.00
2024-04-12T01:07:19.445Z,518.00
2024-04-12T01:08:19.436Z,516.00
2024-04-12T01:09:19.582Z,516.00
2024-04-12T01:10:19.490Z,515.00
2024-04-12T01:11:19.529Z,512.00
2024-04-12T01:12:19.652Z,512.00
2024-04-12T01:13:19.557Z,514.00
2024-04-12T01:14:19.585Z,515.00
2024-04-12T01:15:19.681Z,516.00
2024-04-12T01:16:19.692Z,513.00
2024-04-12T01:17:19.779Z,513.00
2024-04-12T01:18:19.707Z,513.00
2024-04-12T01:19:19.715Z,513.00
2024-04-12T01:20:19.706Z,511.00
2024-04-12T01:21:19.767Z,511.00
2024-04-12T01:22:19.777Z,510.00
2024-04-12T01:23:19.775Z,513.00
2024-04-12T01:24:19.837Z,514.00
2024-04-12T01:25:19.778Z,515.00
2024-04-12T01:26:19.974Z,515.00
2024-04-12T01:27:19.914Z,516.00
2024-04-12T01:28:19.911Z,514.00
2024-04-12T01:29:19.911Z,513.00
2024-04-12T01:30:20.011Z,516.00
2024-04-12T01:31:20.116Z,515.00
2024-04-12T01:32:20.099Z,516.00
2024-04-12T01:33:20.101Z,516.00
2024-04-12T01:34:20.113Z,516.00
2024-04-12T01:35:20.134Z,516.00
2024-04-12T01:36:20.177Z,517.00
2024-04-12T01:37:20.178Z,518.00
2024-04-12T01:38:21.309Z,516.00
2024-04-12T01:39:20.190Z,515.00
2024-04-12T01:40:20.311Z,516.00
2024-04-12T01:41:20.337Z,517.00
2024-04-12T01:42:20.343Z,520.00
2024-04-12T01:43:20.383Z,519.00
2024-04-12T01:44:20.399Z,520.00
2024-04-12T01:45:20.394Z,522.00
2024-04-12T01:46:20.516Z,522.00
2024-04-12T01:47:20.580Z,521.00
2024-04-12T01:48:20.673Z,521.00
2024-04-12T01:49:20.523Z,521.00
2024-04-12T01:50:20.736Z,519.00
2024-04-12T01:51:20.575Z,517.00
2024-04-12T01:52:20.652Z,518.00
2024-04-12T01:53:20.653Z,516.00
2024-04-12T01:54:20.680Z,516.00
2024-04-12T01:55:20.783Z,517.00
2024-04-12T01:56:20.743Z,518.00
2024-04-12T01:57:21.231Z,519.00
2024-04-12T01:58:20.851Z,519.00
2024-04-12T01:59:20.868Z,520.00
2024-04-12T02:00:20.911Z,519.00
2024-04-12T02:01:20.960Z,518.00
2024-04-12T02:02:20.947Z,519.00
2024-04-12T02:03:21.212Z,521.00
2024-04-12T02:04:21.096Z,523.00
2024-04-12T02:05:21.199Z,522.00
2024-04-12T02:06:21.022Z,520.00
2024-04-12T02:07:21.187Z,521.00
2024-04-12T02:08:21.148Z,520.00
2024-04-12T02:09:21.145Z,523.00
2024-04-12T02:10:21.208Z,522.00
2024-04-12T02:11:21.241Z,522.00
2024-04-12T02:12:21.366Z,520.00
2024-04-12T02:13:23.472Z,519.00
2024-04-12T02:14:21.365Z,518.00
2024-04-12T02:15:21.260Z,517.00
2024-04-12T02:16:21.441Z,515.00
2024-04-12T02:17:21.312Z,513.00
2024-04-12T02:18:22.210Z,515.00
2024-04-12T02:19:21.436Z,515.00
2024-04-12T02:20:21.373Z,515.00
2024-04-12T02:21:21.305Z,515.00
2024-04-12T02:22:21.311Z,516.00
2024-04-12T02:23:21.385Z,518.00
2024-04-12T02:24:21.395Z,521.00
2024-04-12T02:25:21.412Z,522.00
2024-04-12T02:26:21.420Z,522.00
2024-04-12T02:27:21.398Z,521.00
2024-04-12T02:28:21.327Z,521.00
2024-04-12T02:29:21.331Z,520.00
2024-04-12T02:30:21.293Z,523.00
2024-04-12T02:31:21.370Z,523.00
2024-04-12T02:32:21.402Z,523.00
2024-04-12T02:33:21.375Z,522.00
2024-04-12T02:34:21.370Z,521.00
2024-04-12T02:35:21.357Z,522.00
2024-04-12T02:36:21.292Z,520.00
2024-04-12T02:37:21.336Z,521.00
2024-04-12T02:38:21.411Z,519.00
2024-04-12T02:39:21.603Z,521.00
2024-04-12T02:40:21.348Z,521.00
2024-04-12T02:41:21.410Z,519.00
2024-04-12T02:42:21.512Z,519.00
2024-04-12T02:43:21.347Z,519.00
2024-04-12T02:44:21.392Z,520.00
2024-04-12T02:45:21.346Z,519.00
2024-04-12T02:46:21.393Z,518.00
2024-04-12T02:47:21.549Z,518.00
2024-04-12T02:48:21.799Z,517.00
2024-04-12T02:49:21.491Z,518.00
2024-04-12T02:50:21.522Z,518.00
2024-04-12T02:51:21.588Z,516.00
2024-04-12T02:52:21.662Z,519.00
2024-04-12T02:53:21.683Z,519.00
2024-04-12T02:54:23.904Z,518.00
2024-04-12T02:55:21.809Z,519.00
2024-04-12T02:56:21.868Z,520.00
2024-04-12T02:57:21.672Z,520.00
2024-04-12T02:58:21.654Z,520.00
2024-04-12T02:59:21.785Z,522.00
2024-04-12T03:00:21.683Z,520.00
2024-04-12T03:01:21.828Z,518.00
2024-04-12T03:02:21.775Z,517.00
2024-04-12T03:03:21.783Z,518.00
2024-04-12T03:04:21.702Z,518.00
2024-04-12T03:05:21.706Z,519.00
2024-04-12T03:06:21.732Z,519.00
2024-04-12T03:07:21.856Z,517.00
2024-04-12T03:08:21.715Z,519.00
2024-04-12T03:09:21.731Z,522.00
2024-04-12T03:10:21.812Z,522.00
2024-04-12T03:11:21.751Z,520.00
2024-04-12T03:12:21.842Z,518.00
2024-04-12T03:13:21.714Z,516.00
2024-04-12T03:14:21.743Z,517.00
2024-04-12T03:15:21.831Z,517.00
2024-04-12T03:16:21.904Z,516.00
2024-04-12T03:17:21.802Z,514.00
2024-04-12T03:18:21.866Z,516.00
2024-04-12T03:19:21.912Z,517.00
2024-04-12T03:20:21.733Z,516.00
2024-04-12T03:21:21.855Z,517.00
2024-04-12T03:22:21.744Z,514.00
2024-04-12T03:23:21.694Z,512.00
2024-04-12T03:24:21.908Z,511.00
2024-04-12T03:25:21.723Z,510.00
2024-04-12T03:26:21.743Z,510.00
2024-04-12T03:27:21.754Z,511.00
2024-04-12T03:28:21.772Z,513.00
2024-04-12T03:29:21.757Z,512.00
2024-04-12T03:30:21.915Z,512.00
2024-04-12T03:31:21.780Z,514.00
2024-04-12T03:32:21.763Z,513.00
2024-04-12T03:33:21.913Z,513.00
2024-04-12T03:34:22.347Z,513.00
2024-04-12T03:35:21.733Z,512.00
2024-04-12T03:36:21.753Z,511.00
2024-04-12T03:37:21.889Z,511.00
2024-04-12T03:38:21.871Z,512.00
2024-04-12T03:39:23.711Z,514.00
2024-04-12T03:40:21.763Z,514.00
2024-04-12T03:41:21.778Z,515.00
2024-04-12T03:42:21.732Z,514.00
2024-04-12T03:43:21.856Z,513.00
2024-04-12T03:44:21.797Z,512.00
2024-04-12T03:45:21.791Z,511.00
2024-04-12T03:46:21.766Z,511.00
2024-04-12T03:47:21.779Z,512.00
2024-04-12T03:48:22.165Z,512.00
2024-04-12T03:49:21.776Z,510.00
2024-04-12T03:50:21.825Z,511.00
2024-04-12T03:51:21.733Z,511.00
2024-04-12T03:52:21.960Z,511.00
2024-04-12T03:53:21.832Z,511.00
2024-04-12T03:54:21.755Z,512.00
2024-04-12T03:55:21.765Z,511.00
2024-04-12T03:56:21.904Z,511.00
2024-04-12T03:57:21.783Z,510.00
2024-04-12T03:58:21.864Z,509.00
2024-04-12T03:59:21.844Z,509.00
2024-04-12T04:00:21.946Z,509.00
2024-04-12T04:01:21.865Z,510.00
2024-04-12T04:02:21.879Z,509.00
2024-04-12T04:03:21.904Z,510.00
2024-04-12T04:04:21.808Z,513.00
2024-04-12T04:05:21.800Z,513.00
2024-04-12T04:06:21.869Z,513.00
2024-04-12T04:07:21.806Z,512.00
2024-04-12T04:08:21.824Z,516.00
2024-04-12T04:09:21.811Z,517.00
2024-04-12T04:10:21.892Z,516.00
2024-04-12T04:11:21.803Z,518.00
2024-04-12T04:12:21.854Z,518.00
2024-04-12T04:13:21.798Z,519.00
2024-04-12T04:14:21.998Z,517.00
2024-04-12T04:15:21.874Z,516.00
2024-04-12T04:16:21.816Z,514.00
2024-04-12T04:17:21.887Z,516.00
2024-04-12T04:18:21.903Z,517.00
2024-04-12T04:19:21.836Z,518.00
2024-04-12T04:20:21.934Z,518.00
2024-04-12T04:21:21.817Z,518.00
2024-04-12T04:22:21.824Z,520.00
2024-04-12T04:23:21.867Z,521.00
2024-04-12T04:24:22.016Z,523.00
2024-04-12T04:25:21.827Z,522.00
2024-04-12T04:26:21.829Z,524.00
2024-04-12T04:27:21.837Z,522.00
2024-04-12T04:28:21.851Z,523.00
2024-04-12T04:29:29.212Z,548.00
2024-04-12T04:30:29.167Z,540.00
2024-04-12T04:31:36.446Z,539.00
2024-04-12T04:32:36.630Z,537.00
2024-04-12T04:33:36.467Z,538.00
2024-04-12T04:34:36.563Z,538.00
2024-04-12T04:35:36.748Z,536.00
2024-04-12T04:36:36.673Z,534.00
2024-04-12T04:37:36.849Z,533.00
2024-04-12T04:38:37.289Z,533.00
2024-04-12T04:39:37.070Z,532.00
2024-04-12T04:40:37.291Z,532.00
2024-04-12T04:41:37.348Z,530.00
2024-04-12T04:42:37.344Z,530.00
2024-04-12T04:43:37.443Z,532.00
2024-04-12T04:44:37.674Z,530.00
2024-04-12T04:45:37.735Z,530.00
2024-04-12T04:46:37.859Z,530.00
2024-04-12T04:47:38.145Z,529.00
2024-04-12T04:48:38.385Z,529.00
2024-04-12T04:49:38.397Z,530.00
2024-04-12T04:50:39.072Z,529.00
2024-04-12T04:51:38.379Z,530.00
2024-04-12T04:52:38.356Z,530.00
2024-04-12T04:53:38.422Z,528.00
2024-04-12T04:54:38.343Z,526.00
2024-04-12T04:55:38.349Z,526.00
2024-04-12T04:56:38.376Z,525.00
2024-04-12T04:57:38.372Z,524.00
2024-04-12T04:58:38.365Z,525.00
2024-04-12T04:59:38.477Z,526.00
2024-04-12T05:00:38.459Z,523.00
2024-04-12T05:01:38.494Z,522.00
2024-04-12T05:02:38.428Z,520.00
2024-04-12T05:03:38.585Z,521.00
2024-04-12T05:04:38.364Z,521.00
2024-04-12T05:05:38.397Z,520.00
2024-04-12T05:06:38.392Z,517.00
2024-04-12T05:07:38.433Z,517.00
2024-04-12T05:08:38.402Z,515.00
2024-04-12T05:09:38.486Z,518.00
2024-04-12T05:10:38.508Z,518.00
2024-04-12T05:11:38.718Z,521.00
2024-04-12T05:12:38.715Z,522.00
2024-04-12T05:13:38.576Z,525.00
2024-04-12T05:14:38.723Z,525.00
2024-04-12T05:15:38.654Z,527.00
2024-04-12T05:16:38.717Z,529.00
2024-04-12T05:17:38.828Z,530.00
2024-04-12T05:18:38.880Z,531.00
2024-04-12T05:19:38.816Z,530.00
2024-04-12T05:20:38.866Z,534.00
2024-04-12T05:21:38.906Z,536.00
2024-04-12T05:22:38.952Z,537.00
2024-04-12T05:23:39.082Z,539.00
2024-04-12T05:24:39.051Z,544.00
2024-04-12T05:25:39.601Z,541.00
2024-04-12T05:26:39.090Z,540.00
2024-04-12T05:27:39.184Z,540.00
2024-04-12T05:28:39.095Z,541.00
2024-04-12T05:29:39.199Z,544.00
2024-04-12T05:30:39.156Z,545.00
2024-04-12T05:31:39.253Z,551.00
2024-04-12T05:32:39.378Z,556.00
2024-04-12T05:33:39.442Z,560.00
2024-04-12T05:34:39.246Z,563.00
2024-04-12T05:35:39.347Z,576.00
2024-04-12T05:36:40.029Z,589.00
2024-04-12T05:37:39.458Z,597.00
2024-04-12T05:38:39.523Z,614.00
2024-04-12T05:39:39.474Z,623.00
2024-04-12T05:40:39.479Z,656.00
2024-04-12T05:41:39.569Z,649.00
2024-04-12T05:42:42.166Z,651.00
2024-04-12T05:43:40.077Z,658.00
2024-04-12T05:44:39.658Z,659.00
2024-04-12T05:45:40.028Z,655.00
2024-04-12T05:46:39.612Z,653.00
2024-04-12T05:47:39.805Z,647.00
2024-04-12T05:48:40.152Z,647.00
2024-04-12T05:49:39.559Z,667.00
2024-04-12T05:50:39.535Z,733.00
2024-04-12T05:51:39.619Z,747.00
2024-04-12T05:52:39.623Z,758.00
2024-04-12T05:53:39.594Z,766.00
2024-04-12T05:54:39.546Z,783.00
2024-04-12T05:55:39.574Z,791.00
2024-04-12T05:56:40.424Z,801.00
2024-04-12T05:57:39.591Z,808.00
2024-04-12T05:58:42.325Z,812.00
2024-04-12T05:59:40.534Z,830.00
2024-04-12T06:00:40.127Z,852.00
2024-04-12T06:01:39.647Z,859.00
2024-04-12T06:02:39.768Z,865.00
2024-04-12T06:03:42.407Z,873.00
2024-04-12T06:04:41.539Z,885.00
2024-04-12T06:05:39.580Z,893.00
2024-04-12T06:06:39.567Z,894.00
2024-04-12T06:07:39.553Z,898.00
2024-04-12T06:08:39.531Z,902.00
2024-04-12T06:09:42.087Z,909.00
2024-04-12T06:10:40.200Z,916.00
2024-04-12T06:11:40.625Z,923.00
2024-04-12T06:12:40.237Z,927.00
2024-04-12T06:13:39.874Z,938.00
2024-04-12T06:14:40.099Z,946.00
2024-04-12T06:15:39.996Z,953.00
2024-04-12T06:16:39.775Z,960.00
2024-04-12T06:17:40.797Z,965.00
2024-04-12T06:18:39.955Z,972.00
2024-04-12T06:19:39.962Z,975.00
2024-04-12T06:20:40.658Z,975.00
2024-04-12T06:21:39.849Z,977.00
2024-04-12T06:22:39.864Z,978.00
2024-04-12T06:23:41.129Z,975.00
2024-04-12T06:24:39.988Z,977.00
2024-04-12T06:25:40.545Z,977.00
2024-04-12T06:26:41.823Z,982.00
2024-04-12T06:27:40.681Z,987.00
2024-04-12T06:28:40.206Z,990.00
2024-04-12T06:29:40.358Z,990.00
2024-04-12T06:30:40.322Z,992.00
2024-04-12T06:31:41.064Z,993.00
2024-04-12T06:32:43.432Z,994.00
2024-04-12T06:33:40.562Z,996.00
2024-04-12T06:34:40.534Z,993.00
2024-04-12T06:35:40.540Z,1002.00
2024-04-12T06:36:40.647Z,994.00
2024-04-12T06:37:40.498Z,968.00
2024-04-12T06:38:40.602Z,948.00
2024-04-12T06:39:40.672Z,925.00
2024-04-12T06:40:40.571Z,908.00
2024-04-12T06:41:41.124Z,892.00
2024-04-12T06:42:40.789Z,832.00
2024-04-12T06:43:40.538Z,813.00
2024-04-12T06:44:40.516Z,807.00
2024-04-12T06:45:40.534Z,813.00
2024-04-12T06:46:40.669Z,818.00
2024-04-12T06:47:40.636Z,869.00
2024-04-12T06:48:40.743Z,872.00
2024-04-12T06:49:40.517Z,887.00
2024-04-12T06:50:40.566Z,914.00
2024-04-12T06:51:40.652Z,932.00
2024-04-12T06:52:40.675Z,944.00
2024-04-12T06:53:40.570Z,959.00
2024-04-12T06:54:40.574Z,973.00
2024-04-12T06:55:40.779Z,992.00
2024-04-12T06:56:40.820Z,1003.00
2024-04-12T06:57:41.401Z,1011.00
2024-04-12T06:58:40.514Z,1020.00
2024-04-12T06:59:42.068Z,1026.00
2024-04-12T07:00:40.707Z,1038.00
2024-04-12T07:01:40.505Z,1049.00
2024-04-12T07:02:40.639Z,1061.00
2024-04-12T07:03:40.624Z,1073.00
2024-04-12T07:04:40.606Z,1085.00
2024-04-12T07:05:41.186Z,1087.00
2024-04-12T07:06:41.044Z,1090.00
2024-04-12T07:07:55.130Z,1098.00
2024-04-12T07:08:41.081Z,1104.00
2024-04-12T07:09:40.792Z,1108.00
2024-04-12T07:10:41.662Z,1111.00
2024-04-12T07:11:41.213Z,1116.00
2024-04-12T07:12:43.558Z,1123.00
2024-04-12T07:13:41.407Z,1130.00
2024-04-12T07:14:42.829Z,1137.00
2024-04-12T07:15:42.104Z,1138.00
2024-04-12T07:16:41.180Z,1144.00
2024-04-12T07:17:41.796Z,1151.00
2024-04-12T07:18:41.094Z,1154.00
2024-04-12T07:19:41.450Z,1153.00
2024-04-12T07:20:41.086Z,1158.00
2024-04-12T07:21:41.670Z,1161.00
2024-04-12T07:22:41.107Z,1168.00
2024-04-12T07:23:41.828Z,1167.00
2024-04-12T07:24:41.102Z,1170.00
2024-04-12T07:25:41.285Z,1173.00
2024-04-12T07:26:42.227Z,1172.00
2024-04-12T07:27:41.228Z,1173.00
2024-04-12T07:28:41.342Z,1172.00
2024-04-12T07:29:41.639Z,1173.00
2024-04-12T07:30:41.662Z,1178.00
2024-04-12T07:31:41.728Z,1181.00
2024-04-12T07:32:42.254Z,1178.00
2024-04-12T07:33:41.734Z,1176.00
2024-04-12T07:34:41.644Z,1163.00
2024-04-12T07:35:41.863Z,1126.00
2024-04-12T07:36:41.899Z,1128.00
2024-04-12T07:37:42.009Z,1075.00
2024-04-12T07:38:42.016Z,1045.00
2024-04-12T07:39:42.244Z,1038.00
2024-04-12T07:40:43.219Z,1030.00
2024-04-12T07:41:45.081Z,1017.00
2024-04-12T07:42:44.171Z,1008.00
2024-04-12T07:43:42.233Z,1004.00
2024-04-12T07:44:42.245Z,1002.00
2024-04-12T07:45:42.275Z,997.00
2024-04-12T07:46:43.030Z,998.00
2024-04-12T07:47:42.284Z,998.00
2024-04-12T07:48:42.374Z,995.00
2024-04-12T07:49:42.308Z,998.00
2024-04-12T07:50:42.472Z,998.00
2024-04-12T07:51:42.504Z,1000.00
2024-04-12T07:52:43.207Z,999.00
2024-04-12T07:53:42.563Z,1000.00
2024-04-12T07:54:42.654Z,997.00
2024-04-12T07:55:45.260Z,995.00
2024-04-12T07:56:42.752Z,991.00
2024-04-12T07:57:42.711Z,988.00
2024-04-12T07:58:43.060Z,984.00
2024-04-12T07:59:42.715Z,982.00
2024-04-12T08:00:43.775Z,977.00
2024-04-12T08:01:42.743Z,928.00
2024-04-12T08:02:42.701Z,884.00
2024-04-12T08:03:42.846Z,889.00
2024-04-12T08:04:42.753Z,902.00
2024-04-12T08:05:42.697Z,903.00
2024-04-12T08:06:47.186Z,902.00
2024-04-12T08:07:42.692Z,900.00
2024-04-12T08:08:42.767Z,900.00
2024-04-12T08:09:42.713Z,900.00
2024-04-12T08:10:42.889Z,899.00
2024-04-12T08:11:43.041Z,902.00
2024-04-12T08:12:42.667Z,910.00
2024-04-12T08:13:43.998Z,918.00
2024-04-12T08:14:43.208Z,920.00
2024-04-12T08:15:42.874Z,917.00
2024-04-12T08:16:43.112Z,918.00
2024-04-12T08:17:42.931Z,919.00
2024-04-12T08:18:42.935Z,923.00
2024-04-12T08:19:43.252Z,920.00
2024-04-12T08:20:43.045Z,918.00
2024-04-12T08:21:45.047Z,919.00
2024-04-12T08:22:43.982Z,915.00
2024-04-12T08:23:43.776Z,913.00
2024-04-12T08:24:43.233Z,879.00
2024-04-12T08:25:43.056Z,869.00
2024-04-12T08:26:43.049Z,872.00
2024-04-12T08:27:43.142Z,874.00
2024-04-12T08:28:42.995Z,860.00
2024-04-12T08:29:42.984Z,794.00
2024-04-12T08:30:43.057Z,782.00
2024-04-12T08:31:43.006Z,785.00
2024-04-12T08:32:43.159Z,732.00
2024-04-12T08:33:43.183Z,716.00
2024-04-12T08:34:42.992Z,701.00
2024-04-12T08:35:43.071Z,694.00
2024-04-12T08:36:43.051Z,687.00
2024-04-12T08:37:42.978Z,679.00
2024-04-12T08:38:43.069Z,672.00
2024-04-12T08:39:43.122Z,662.00
2024-04-12T08:40:43.019Z,651.00
2024-04-12T08:41:43.101Z,642.00
2024-04-12T08:42:43.273Z,633.00
2024-04-12T08:43:43.440Z,635.00
2024-04-12T08:44:43.120Z,659.00
2024-04-12T08:45:43.229Z,753.00
2024-04-12T08:46:43.595Z,787.00
2024-04-12T08:47:43.493Z,803.00
2024-04-12T08:48:43.247Z,821.00
2024-04-12T08:49:43.053Z,855.00
2024-04-12T08:50:43.681Z,866.00
2024-04-12T08:51:43.010Z,877.00
2024-04-12T08:52:43.641Z,893.00
2024-04-12T08:53:43.023Z,901.00
2024-04-12T08:54:43.075Z,909.00
2024-04-12T08:55:43.131Z,924.00
2024-04-12T08:56:43.112Z,948.00
2024-04-12T08:57:43.197Z,966.00
2024-04-12T08:58:43.173Z,970.00
2024-04-12T08:59:45.554Z,972.00
2024-04-12T09:00:43.812Z,983.00
2024-04-12T09:01:44.236Z,993.00
2024-04-12T09:02:52.613Z,1001.00
2024-04-12T09:03:44.045Z,1015.00
2024-04-12T09:04:44.653Z,1023.00
2024-04-12T09:05:43.835Z,1031.00
2024-04-12T09:06:43.549Z,1045.00
2024-04-12T09:07:43.566Z,1065.00
2024-04-12T09:08:45.542Z,1070.00
2024-04-12T09:09:43.899Z,1075.00
2024-04-12T09:10:45.228Z,1081.00
2024-04-12T09:11:43.695Z,1090.00
2024-04-12T09:12:43.530Z,1097.00
2024-04-12T09:13:44.220Z,1104.00
2024-04-12T09:14:45.194Z,1111.00
2024-04-12T09:15:43.558Z,1133.00
2024-04-12T09:16:43.743Z,1141.00
2024-04-12T09:17:43.894Z,1145.00
2024-04-12T09:18:44.041Z,1148.00
2024-04-12T09:19:43.788Z,1150.00
2024-04-12T09:20:46.405Z,1154.00
2024-04-12T09:21:44.149Z,1163.00
2024-04-12T09:22:43.667Z,1173.00
2024-04-12T09:23:44.685Z,1180.00
2024-04-12T09:24:45.270Z,1182.00
2024-04-12T09:25:43.742Z,1182.00
2024-04-12T09:26:44.234Z,1188.00
2024-04-12T09:27:44.727Z,1193.00
2024-04-12T09:28:44.610Z,1198.00
2024-04-12T09:29:43.931Z,1199.00
2024-04-12T09:30:43.871Z,1205.00
2024-04-12T09:31:43.891Z,1205.00
2024-04-12T09:32:44.050Z,1211.00
2024-04-12T09:33:44.103Z,1217.00
2024-04-12T09:34:44.052Z,1220.00
2024-04-12T09:35:44.069Z,1215.00
2024-04-12T09:36:44.045Z,1136.00
2024-04-12T09:37:45.077Z,1029.00
2024-04-12T09:38:44.189Z,1030.00
2024-04-12T09:39:44.195Z,1023.00
2024-04-12T09:40:44.192Z,1023.00
2024-04-12T09:41:44.326Z,1024.00
2024-04-12T09:42:44.274Z,1030.00
2024-04-12T09:43:44.379Z,1036.00
2024-04-12T09:44:44.529Z,1040.00
2024-04-12T09:45:44.358Z,1044.00
2024-04-12T09:46:44.398Z,1056.00
2024-04-12T09:47:45.244Z,1062.00
2024-04-12T09:48:44.738Z,1068.00
2024-04-12T09:49:44.582Z,1076.00
2024-04-12T09:50:46.417Z,1087.00
2024-04-12T09:51:44.681Z,1096.00
2024-04-12T09:52:44.678Z,1105.00
2024-04-12T09:53:47.307Z,1111.00
2024-04-12T09:54:47.663Z,1121.00
2024-04-12T09:55:44.700Z,1127.00
2024-04-12T09:56:44.651Z,1122.00
2024-04-12T09:57:44.630Z,1125.00
2024-04-12T09:58:44.917Z,1019.00
2024-04-12T09:59:44.660Z,961.00
2024-04-12T10:00:44.648Z,906.00
2024-04-12T10:01:44.658Z,886.00
2024-04-12T10:02:46.238Z,885.00
2024-04-12T10:03:44.876Z,885.00
2024-04-12T10:04:44.761Z,883.00
2024-04-12T10:05:47.063Z,859.00
2024-04-12T10:06:44.769Z,865.00
2024-04-12T10:07:46.152Z,866.00
2024-04-12T10:08:45.746Z,793.00
2024-04-12T10:09:45.167Z,798.00
2024-04-12T10:10:45.010Z,804.00
2024-04-12T10:11:44.884Z,816.00
2024-04-12T10:12:44.924Z,824.00
2024-04-12T10:13:44.885Z,834.00
2024-04-12T10:14:45.042Z,844.00
2024-04-12T10:15:45.036Z,855.00
2024-04-12T10:16:45.065Z,863.00
2024-04-12T10:17:45.442Z,873.00
2024-04-12T10:18:47.768Z,882.00
2024-04-12T10:19:45.085Z,893.00
2024-04-12T10:20:48.410Z,907.00
2024-04-12T10:21:45.080Z,915.00
2024-04-12T10:22:46.729Z,924.00
2024-04-12T10:23:45.142Z,931.00
2024-04-12T10:24:50.221Z,942.00
2024-04-12T10:25:45.112Z,947.00
2024-04-12T10:26:45.192Z,952.00
2024-04-12T10:27:45.354Z,962.00
2024-04-12T10:28:45.703Z,973.00
2024-04-12T10:29:45.268Z,986.00
2024-04-12T10:30:45.183Z,983.00
2024-04-12T10:31:45.176Z,977.00
2024-04-12T10:32:47.856Z,955.00
2024-04-12T10:33:45.260Z,936.00
2024-04-12T10:34:45.390Z,918.00
2024-04-12T10:35:45.208Z,884.00
2024-04-12T10:36:45.183Z,870.00
2024-04-12T10:37:45.414Z,862.00
2024-04-12T10:38:47.327Z,854.00
2024-04-12T10:39:45.281Z,832.00
2024-04-12T10:40:45.278Z,823.00
2024-04-12T10:41:45.432Z,814.00
2024-04-12T10:42:45.415Z,805.00
2024-04-12T10:43:45.616Z,793.00
2024-04-12T10:44:45.696Z,781.00
2024-04-12T10:45:45.809Z,768.00
2024-04-12T10:46:45.976Z,756.00
2024-04-12T10:47:46.301Z,747.00
2024-04-12T10:48:46.809Z,740.00
2024-04-12T10:49:46.190Z,730.00
2024-04-12T10:50:46.138Z,722.00
2024-04-12T10:51:46.160Z,713.00
2024-04-12T10:52:46.222Z,706.00
2024-04-12T10:53:46.685Z,698.00
2024-04-12T10:54:46.446Z,691.00
2024-04-12T10:55:46.330Z,689.00
2024-04-12T10:56:46.466Z,685.00
2024-04-12T10:57:46.773Z,676.00
2024-04-12T10:58:48.519Z,671.00
2024-04-12T10:59:47.214Z,665.00
2024-04-12T11:00:46.583Z,657.00
2024-04-12T11:01:46.870Z,651.00
2024-04-12T11:02:57.798Z,646.00
2024-04-12T11:03:47.834Z,641.00
2024-04-12T11:04:46.844Z,637.00
2024-04-12T11:05:47.065Z,632.00
2024-04-12T11:06:46.917Z,630.00
2024-04-12T11:07:47.237Z,628.00
2024-04-12T11:08:47.004Z,630.00
2024-04-12T11:09:47.758Z,630.00
2024-04-12T11:10:47.087Z,631.00
2024-04-12T11:11:48.034Z,628.00
2024-04-12T11:12:47.732Z,626.00
2024-04-12T11:13:47.438Z,625.00
2024-04-12T11:14:47.318Z,624.00
2024-04-12T11:15:47.337Z,624.00
2024-04-12T11:16:47.781Z,623.00
2024-04-12T11:17:47.611Z,625.00
2024-04-12T11:18:47.942Z,625.00
2024-04-12T11:19:50.213Z,623.00
2024-04-12T11:20:47.687Z,623.00
2024-04-12T11:21:47.571Z,622.00
2024-04-12T11:22:47.623Z,621.00
2024-04-12T11:23:47.614Z,621.00
2024-04-12T11:24:47.556Z,620.00
2024-04-12T11:25:47.663Z,622.00
2024-04-12T11:26:47.721Z,618.00
2024-04-12T11:27:47.571Z,619.00
2024-04-12T11:28:47.601Z,620.00
2024-04-12T11:29:47.747Z,618.00
2024-04-12T11:30:47.745Z,616.00
2024-04-12T11:31:47.613Z,614.00
2024-04-12T11:32:47.667Z,614.00
2024-04-12T11:33:48.833Z,614.00
2024-04-12T11:34:47.703Z,616.00
2024-04-12T11:35:47.628Z,616.00
2024-04-12T11:36:47.642Z,614.00
2024-04-12T11:37:49.246Z,611.00
2024-04-12T11:38:47.695Z,612.00
2024-04-12T11:39:47.628Z,613.00
2024-04-12T11:40:47.670Z,611.00
2024-04-12T11:41:47.607Z,612.00
2024-04-12T11:42:47.616Z,609.00
2024-04-12T11:43:47.609Z,613.00
2024-04-12T11:44:47.606Z,613.00
2024-04-12T11:45:47.624Z,615.00
2024-04-12T11:46:47.602Z,615.00
2024-04-12T11:47:47.838Z,614.00
2024-04-12T11:48:47.748Z,614.00
2024-04-12T11:49:47.776Z,613.00
2024-04-12T11:50:47.845Z,613.00
2024-04-12T11:51:48.000Z,613.00
2024-04-12T11:52:47.965Z,611.00
2024-04-12T11:53:48.177Z,611.00
2024-04-12T11:54:48.175Z,607.00
2024-04-12T11:55:48.195Z,608.00
2024-04-12T11:56:48.188Z,609.00
2024-04-12T11:57:48.319Z,610.00
2024-04-12T11:58:48.308Z,607.00
2024-04-12T11:59:48.420Z,609.00
2024-04-12T12:00:48.846Z,606.00
2024-04-12T12:01:48.552Z,603.00
2024-04-12T12:02:48.705Z,604.00
2024-04-12T12:03:48.741Z,603.00
2024-04-12T12:04:48.930Z,603.00
2024-04-12T12:05:48.964Z,601.00
2024-04-12T12:06:48.837Z,602.00
2024-04-12T12:07:48.996Z,600.00
2024-04-12T12:08:49.054Z,601.00
2024-04-12T12:09:49.176Z,601.00
2024-04-12T12:10:49.095Z,601.00
2024-04-12T12:11:49.254Z,600.00
2024-04-12T12:12:49.292Z,600.00
2024-04-12T12:13:49.334Z,603.00
2024-04-12T12:14:49.409Z,602.00
2024-04-12T12:15:49.506Z,604.00
2024-04-12T12:16:49.582Z,606.00
2024-04-12T12:17:50.363Z,607.00
2024-04-12T12:18:49.659Z,604.00
2024-04-12T12:19:49.667Z,607.00
2024-04-12T12:20:49.797Z,606.00
2024-04-12T12:21:49.784Z,605.00
2024-04-12T12:22:49.890Z,605.00
2024-04-12T12:23:49.943Z,604.00
2024-04-12T12:24:49.971Z,606.00
2024-04-12T12:25:50.026Z,608.00